Time;durP1;ratioP1;P1;durP2;ratioP2;P2;SDS_P1;SDS_P2;PMS_P1;PMS_P2;Temp;Humidity;BMP_temperature;BMP_pressure;BME280_temperature;BME280_humidity;BME280_pressure;Samples;Min_cycle;Max_cycle;Signal;HPM_P1;HPM_P2
2022/09/02 00:00:42;;;;;;;3.90;0.40;;;17.40;81.40;;;;;;5124479;27;20818;-72
2022/09/02 00:03:08;;;;;;;3.03;0.63;;;17.40;81.70;;;;;;5121720;27;20757;-72
2022/09/02 00:05:34;;;;;;;1.33;0.40;;;17.30;81.50;;;;;;5130720;27;20408;-73
2022/09/02 00:08:00;;;;;;;1.80;0.50;;;17.30;82.00;;;;;;5132761;27;20394;-71
2022/09/02 00:10:26;;;;;;;2.15;0.30;;;17.30;82.00;;;;;;5133925;27;20760;-73
2022/09/02 00:12:51;;;;;;;1.90;0.40;;;17.30;82.00;;;;;;5126059;27;20431;-71
2022/09/02 00:15:17;;;;;;;2.28;0.30;;;17.20;82.00;;;;;;5102979;27;20405;-71
2022/09/02 00:17:43;;;;;;;2.07;0.53;;;17.20;82.70;;;;;;5133860;27;20388;-71
2022/09/02 00:20:09;;;;;;;0.70;0.30;;;17.20;82.70;;;;;;5126168;27;20396;-72
2022/09/02 00:22:34;;;;;;;1.10;0.40;;;17.10;82.70;;;;;;5131930;27;20382;-72
2022/09/02 00:25:00;;;;;;;0.68;0.35;;;17.10;83.70;;;;;;5125096;27;20524;-72
2022/09/02 00:27:26;;;;;;;0.90;0.20;;;17.10;82.80;;;;;;5126976;27;20398;-72
2022/09/02 00:29:52;;;;;;;2.42;0.30;;;17.10;82.60;;;;;;5141978;27;20749;-73
2022/09/02 00:32:18;;;;;;;2.87;0.50;;;17.00;82.70;;;;;;5129590;27;20419;-71
2022/09/02 00:34:44;;;;;;;1.60;0.30;;;17.00;82.70;;;;;;5132502;27;20420;-71
2022/09/02 00:37:10;;;;;;;1.60;0.50;;;17.00;83.00;;;;;;5150212;27;20710;-71
2022/09/02 00:39:35;;;;;;;2.42;0.38;;;17.00;83.00;;;;;;5148165;27;20398;-72
2022/09/02 00:42:02;;;;;;;0.50;0.40;;;16.90;82.60;;;;;;5125191;28;20393;-72
2022/09/02 00:44:28;;;;;;;1.27;0.40;;;16.90;82.70;;;;;;5116574;27;20407;-71
2022/09/02 00:46:53;;;;;;;1.60;0.40;;;16.90;82.90;;;;;;5115914;27;20405;-71
2022/09/02 00:49:26;;;;;;;1.02;0.30;;;16.90;82.80;;;;;;5124399;27;20396;-72
2022/09/02 00:52:09;;;;;;;1.40;0.28;;;16.90;82.70;;;;;;5139987;27;20407;-71
2022/09/02 00:54:40;;;;;;;1.10;0.30;;;16.90;82.90;;;;;;5138016;27;20450;-71
2022/09/02 00:57:12;;;;;;;1.08;0.28;;;16.90;83.00;;;;;;5131601;27;20802;-71
2022/09/02 01:00:09;;;;;;;1.70;0.38;;;16.80;83.20;;;;;;5111273;27;20399;-73
2022/09/02 01:02:38;;;;;;;2.03;0.30;;;16.80;83.10;;;;;;5111568;27;20409;-71
2022/09/02 01:05:07;;;;;;;1.05;0.20;;;16.80;83.10;;;;;;5123419;27;20421;-71
2022/09/02 01:07:36;;;;;;;1.60;0.40;;;16.80;83.30;;;;;;5112439;27;20404;-71
2022/09/02 01:10:05;;;;;;;2.03;0.40;;;16.70;83.20;;;;;;5115987;27;20966;-71
2022/09/02 01:12:31;;;;;;;0.80;0.30;;;16.70;83.40;;;;;;5118581;27;20422;-71
2022/09/02 01:14:58;;;;;;;2.00;0.40;;;16.70;83.60;;;;;;5127267;27;21085;-72
2022/09/02 01:17:25;;;;;;;1.10;0.27;;;16.60;83.60;;;;;;5128177;27;20486;-72
2022/09/02 01:19:56;;;;;;;2.33;0.30;;;16.60;83.60;;;;;;5131234;27;20440;-71
2022/09/02 01:22:27;;;;;;;1.70;0.20;;;16.60;83.80;;;;;;5126397;27;20399;-71
2022/09/02 01:24:57;;;;;;;1.75;0.30;;;16.60;83.90;;;;;;5124959;27;20435;-72
2022/09/02 01:27:23;;;;;;;1.85;0.57;;;16.60;83.80;;;;;;5106439;28;20981;-71
2022/09/02 01:29:56;;;;;;;1.80;0.50;;;16.50;84.10;;;;;;5121461;27;20394;-71
2022/09/02 01:32:23;;;;;;;2.40;0.57;;;16.50;84.20;;;;;;5108232;28;20487;-71
2022/09/02 01:34:49;;;;;;;2.65;0.60;;;16.50;84.40;;;;;;5123040;27;20422;-72
2022/09/02 01:37:15;;;;;;;2.10;0.40;;;16.50;84.70;;;;;;5128800;27;21019;-71
2022/09/02 01:39:41;;;;;;;2.22;0.52;;;16.40;84.30;;;;;;5109435;28;20470;-71
2022/09/02 01:42:06;;;;;;;1.23;0.30;;;16.40;84.90;;;;;;5092008;28;20404;-71
2022/09/02 01:44:36;;;;;;;2.15;0.47;;;16.40;85.10;;;;;;5110116;28;20412;-71
2022/09/02 01:47:02;;;;;;;2.42;0.40;;;16.30;85.00;;;;;;5116942;27;20427;-71
2022/09/02 01:49:28;;;;;;;1.27;0.40;;;16.30;85.40;;;;;;5111770;27;20425;-71
2022/09/02 01:51:55;;;;;;;2.20;0.40;;;16.30;84.90;;;;;;5118497;27;20392;-71
2022/09/02 01:54:20;;;;;;;1.15;0.45;;;16.30;85.10;;;;;;5110773;27;20491;-71
2022/09/02 01:56:46;;;;;;;1.42;0.40;;;16.30;85.30;;;;;;5121484;27;20525;-71
2022/09/02 01:59:16;;;;;;;1.57;0.50;;;16.20;85.20;;;;;;5124597;27;20391;-71
2022/09/02 02:01:43;;;;;;;2.22;0.30;;;16.20;85.40;;;;;;5120958;27;20803;-71
2022/09/02 02:04:09;;;;;;;1.77;0.47;;;16.20;85.40;;;;;;5112370;27;20407;-71
2022/09/02 02:06:38;;;;;;;2.27;0.50;;;16.20;85.30;;;;;;5120866;27;20389;-72
2022/09/02 02:09:04;;;;;;;2.20;0.50;;;16.10;85.40;;;;;;5113062;27;20908;-71
2022/09/02 02:11:30;;;;;;;2.10;0.50;;;16.10;85.50;;;;;;5128881;27;20485;-71
2022/09/02 02:13:56;;;;;;;1.60;0.50;;;16.10;85.80;;;;;;5119500;27;20795;-71
2022/09/02 02:16:22;;;;;;;1.40;0.50;;;16.10;85.90;;;;;;5122635;27;20407;-72
2022/09/02 02:18:47;;;;;;;2.20;0.60;;;16.10;86.50;;;;;;5129919;27;20857;-71
2022/09/02 02:21:13;;;;;;;1.20;0.40;;;16.00;85.80;;;;;;5125398;27;20861;-72
2022/09/02 02:23:39;;;;;;;1.67;0.57;;;16.00;86.30;;;;;;5110422;27;20401;-71
2022/09/02 02:26:05;;;;;;;1.85;0.40;;;16.00;86.20;;;;;;5108236;28;20736;-71
2022/09/02 02:28:30;;;;;;;1.17;0.47;;;16.00;86.40;;;;;;5109406;28;20423;-71
2022/09/02 02:30:57;;;;;;;1.65;0.50;;;16.00;86.40;;;;;;5094673;28;20417;-71
2022/09/02 02:33:22;;;;;;;2.67;0.55;;;15.90;86.40;;;;;;5119173;27;20454;-72
2022/09/02 02:35:48;;;;;;;1.70;0.60;;;15.90;86.70;;;;;;5129165;27;20430;-71
2022/09/02 02:38:14;;;;;;;1.60;0.50;;;15.90;86.70;;;;;;5122678;27;20400;-71
2022/09/02 02:40:40;;;;;;;1.15;0.40;;;15.90;87.00;;;;;;5110601;27;20403;-72
2022/09/02 02:43:05;;;;;;;1.40;0.50;;;15.80;86.90;;;;;;5115688;27;20447;-71
2022/09/02 02:45:31;;;;;;;1.80;0.60;;;15.80;86.70;;;;;;5115213;27;20820;-71
2022/09/02 02:47:57;;;;;;;1.70;0.50;;;15.80;87.10;;;;;;5122431;27;20427;-71
2022/09/02 02:50:24;;;;;;;2.83;0.52;;;15.70;87.10;;;;;;5115466;27;20829;-71
2022/09/02 02:52:53;;;;;;;1.95;0.50;;;15.70;87.30;;;;;;5115832;27;20392;-71
2022/09/02 02:55:19;;;;;;;1.25;0.50;;;15.70;87.40;;;;;;5115971;27;20832;-71
2022/09/02 02:57:45;;;;;;;1.58;0.70;;;15.70;87.50;;;;;;5115358;27;20449;-71
2022/09/02 03:00:19;;;;;;;1.15;0.40;;;15.70;87.40;;;;;;5115903;27;20387;-71
2022/09/02 03:02:45;;;;;;;1.52;0.63;;;15.60;87.40;;;;;;5127826;27;20530;-71
2022/09/02 03:05:13;;;;;;;1.90;0.50;;;15.60;87.40;;;;;;5116275;27;20395;-71
2022/09/02 03:07:38;;;;;;;1.40;0.47;;;15.60;87.60;;;;;;5115222;27;20396;-72
2022/09/02 03:10:07;;;;;;;1.87;0.50;;;15.60;87.50;;;;;;5128943;27;20888;-71
2022/09/02 03:12:34;;;;;;;2.15;0.70;;;15.60;87.50;;;;;;5128266;27;20522;-72
2022/09/02 03:15:00;;;;;;;1.48;0.50;;;15.60;87.80;;;;;;5129401;27;20411;-71
2022/09/02 03:17:27;;;;;;;2.42;0.73;;;15.60;88.20;;;;;;5112986;28;20396;-71
2022/09/02 03:19:53;;;;;;;1.97;0.50;;;15.60;88.30;;;;;;5095865;28;20404;-71
2022/09/02 03:22:19;;;;;;;2.45;0.65;;;15.50;88.30;;;;;;5108762;28;20465;-71
2022/09/02 03:24:44;;;;;;;1.08;0.50;;;15.60;88.40;;;;;;5108532;28;20904;-71
2022/09/02 03:27:10;;;;;;;2.07;0.87;;;15.60;88.50;;;;;;5108411;28;20435;-71
2022/09/02 03:29:35;;;;;;;1.58;0.50;;;15.60;88.70;;;;;;5121981;28;20435;-71
2022/09/02 03:32:02;;;;;;;2.83;0.70;;;15.50;89.10;;;;;;5116675;28;20391;-71
2022/09/02 03:34:29;;;;;;;1.90;0.45;;;15.50;89.10;;;;;;5109047;27;20506;-71
2022/09/02 03:36:55;;;;;;;2.75;0.47;;;15.50;89.30;;;;;;5126281;27;20390;-71
2022/09/02 03:39:20;;;;;;;1.60;0.52;;;15.50;89.50;;;;;;5122393;27;20403;-71
2022/09/02 03:41:47;;;;;;;1.90;0.50;;;15.50;89.70;;;;;;5098434;28;20424;-71
2022/09/02 03:44:13;;;;;;;2.15;0.60;;;15.50;89.90;;;;;;5118401;27;20398;-71
2022/09/02 03:46:38;;;;;;;2.07;0.60;;;15.50;89.80;;;;;;5119807;27;20951;-71
2022/09/02 03:49:04;;;;;;;2.03;0.60;;;15.40;89.80;;;;;;5118627;27;20402;-71
2022/09/02 03:51:30;;;;;;;2.13;0.80;;;15.40;89.90;;;;;;5120153;27;20435;-72
2022/09/02 03:53:56;;;;;;;3.42;0.90;;;15.40;90.00;;;;;;5118496;27;20421;-72
2022/09/02 03:56:23;;;;;;;2.00;0.80;;;15.40;90.20;;;;;;5132026;27;20391;-71
2022/09/02 03:58:50;;;;;;;2.53;0.90;;;15.40;90.10;;;;;;5125430;27;20427;-71
2022/09/02 04:01:18;;;;;;;1.83;0.60;;;15.30;90.00;;;;;;5126614;27;20441;-71
2022/09/02 04:03:44;;;;;;;2.25;0.90;;;15.30;90.20;;;;;;5125409;27;20753;-71
2022/09/02 04:06:11;;;;;;;2.22;1.10;;;15.30;90.20;;;;;;5097116;28;20400;-71
2022/09/02 04:08:40;;;;;;;2.22;0.85;;;15.30;90.20;;;;;;5125250;27;20592;-71
2022/09/02 04:11:11;;;;;;;2.05;0.82;;;15.20;90.10;;;;;;5125571;27;20404;-71
2022/09/02 04:13:37;;;;;;;3.38;1.17;;;15.20;90.40;;;;;;5126381;27;20426;-71
2022/09/02 04:16:13;;;;;;;2.72;0.88;;;15.20;90.30;;;;;;5124547;27;20780;-71
2022/09/02 04:18:39;;;;;;;2.60;1.00;;;15.20;90.50;;;;;;5111662;27;20392;-72
2022/09/02 04:21:05;;;;;;;2.80;1.10;;;15.20;90.50;;;;;;5120652;27;20397;-71
2022/09/02 04:23:31;;;;;;;2.50;0.93;;;15.20;90.50;;;;;;5115736;27;20392;-71
2022/09/02 04:25:57;;;;;;;1.70;0.80;;;15.20;90.50;;;;;;5111787;27;20538;-71
2022/09/02 04:28:23;;;;;;;3.72;0.98;;;15.10;90.50;;;;;;5114257;27;20622;-72
2022/09/02 04:30:49;;;;;;;2.28;1.08;;;15.10;90.70;;;;;;5121891;27;20404;-71
2022/09/02 04:33:15;;;;;;;4.03;2.10;;;15.10;90.70;;;;;;5111650;28;20431;-71
2022/09/02 04:35:42;;;;;;;3.57;2.30;;;15.10;90.70;;;;;;5119600;27;20409;-71
2022/09/02 04:38:08;;;;;;;3.00;2.03;;;15.10;91.00;;;;;;5130341;27;20397;-71
2022/09/02 04:40:34;;;;;;;3.47;1.60;;;15.00;90.90;;;;;;5111421;28;20397;-72
2022/09/02 04:43:00;;;;;;;3.67;1.20;;;15.00;91.00;;;;;;5126497;27;20428;-71
2022/09/02 04:45:26;;;;;;;2.65;1.35;;;15.00;90.90;;;;;;5112409;27;20483;-71
2022/09/02 04:47:51;;;;;;;2.67;1.10;;;15.00;91.30;;;;;;5117704;27;20389;-72
2022/09/02 04:50:17;;;;;;;2.35;1.10;;;15.00;91.30;;;;;;5131307;27;20402;-72
2022/09/02 04:52:43;;;;;;;2.90;0.80;;;15.00;91.20;;;;;;5130732;27;20391;-71
2022/09/02 04:55:09;;;;;;;3.10;0.60;;;14.90;91.20;;;;;;5130206;27;20798;-72
2022/09/02 04:57:35;;;;;;;2.28;0.63;;;15.00;91.40;;;;;;5130429;27;20447;-72
2022/09/02 05:00:06;;;;;;;2.40;0.70;;;15.00;91.30;;;;;;5131155;27;20399;-71
2022/09/02 05:02:31;;;;;;;1.65;0.70;;;15.00;91.40;;;;;;5117525;27;20404;-71
2022/09/02 05:04:57;;;;;;;5.28;0.70;;;15.00;91.30;;;;;;5122650;27;20404;-72
2022/09/02 05:07:23;;;;;;;2.87;0.83;;;15.00;91.60;;;;;;5110981;27;20453;-71
2022/09/02 05:09:48;;;;;;;2.08;0.60;;;15.00;91.60;;;;;;5117875;27;20736;-72
2022/09/02 05:12:14;;;;;;;1.63;0.73;;;14.90;91.50;;;;;;5110099;27;20390;-72
2022/09/02 05:14:40;;;;;;;2.58;0.95;;;15.00;91.70;;;;;;5119726;27;20473;-71
2022/09/02 05:17:05;;;;;;;1.88;0.70;;;14.90;91.80;;;;;;5115993;27;20526;-71
2022/09/02 05:19:31;;;;;;;3.53;1.30;;;14.90;91.90;;;;;;5112045;27;20466;-71
2022/09/02 05:21:58;;;;;;;1.52;0.63;;;14.90;91.80;;;;;;5124934;27;20749;-71
2022/09/02 05:24:25;;;;;;;2.10;0.90;;;14.90;91.90;;;;;;5123435;27;20516;-72
2022/09/02 05:26:50;;;;;;;1.65;0.82;;;15.00;92.00;;;;;;5112084;27;20401;-71
2022/09/02 05:29:19;;;;;;;1.60;0.70;;;15.00;92.10;;;;;;5126505;27;20448;-71
2022/09/02 05:31:46;;;;;;;2.83;0.70;;;15.00;92.30;;;;;;5130334;27;20473;-71
2022/09/02 05:34:13;;;;;;;4.47;1.40;;;15.00;92.40;;;;;;5130334;27;20955;-71
2022/09/02 05:36:38;;;;;;;2.92;0.80;;;15.00;92.30;;;;;;5094847;28;21110;-71
2022/09/02 05:39:05;;;;;;;5.13;1.20;;;15.10;92.20;;;;;;5125321;27;20399;-71
2022/09/02 05:41:31;;;;;;;2.17;0.80;;;15.10;92.50;;;;;;5130355;27;20521;-71
2022/09/02 05:44:00;;;;;;;2.83;0.83;;;15.20;92.50;;;;;;5116665;27;20808;-71
2022/09/02 05:46:25;;;;;;;2.57;0.87;;;15.20;92.50;;;;;;5130195;27;20395;-71
2022/09/02 05:49:05;;;;;;;1.63;0.70;;;15.20;92.50;;;;;;5118479;27;20407;-71
2022/09/02 05:51:39;;;;;;;3.65;0.90;;;15.20;92.50;;;;;;5120333;27;20422;-71
2022/09/02 05:54:05;;;;;;;4.22;1.10;;;15.30;92.50;;;;;;5117376;27;20434;-71
2022/09/02 05:56:31;;;;;;;3.20;0.93;;;15.30;92.40;;;;;;5108381;27;20461;-70
2022/09/02 05:58:57;;;;;;;3.08;0.90;;;15.30;92.70;;;;;;5124579;27;20806;-71
2022/09/02 06:01:24;;;;;;;1.90;0.85;;;15.40;92.60;;;;;;5126042;27;20780;-71
2022/09/02 06:03:51;;;;;;;3.85;0.95;;;15.40;92.60;;;;;;5121941;27;20392;-71
2022/09/02 06:06:17;;;;;;;3.45;1.00;;;15.40;92.50;;;;;;5124224;27;20490;-70
2022/09/02 06:08:43;;;;;;;3.38;0.90;;;15.40;92.70;;;;;;5130010;27;20389;-71
2022/09/02 06:11:11;;;;;;;4.45;1.17;;;15.50;92.60;;;;;;5128205;27;20399;-72
2022/09/02 06:13:39;;;;;;;2.50;0.70;;;15.50;92.80;;;;;;5117604;27;20868;-71
2022/09/02 06:16:07;;;;;;;2.60;0.95;;;15.50;92.60;;;;;;5127749;27;20738;-70
2022/09/02 06:18:33;;;;;;;2.83;0.93;;;15.50;92.50;;;;;;5118664;27;20944;-71
2022/09/02 06:21:00;;;;;;;1.43;0.70;;;15.60;92.40;;;;;;5127555;27;20410;-72
2022/09/02 06:23:26;;;;;;;2.35;0.63;;;15.60;92.30;;;;;;5118470;27;20401;-72
2022/09/02 06:25:51;;;;;;;2.88;0.80;;;15.60;92.30;;;;;;5127221;27;21053;-71
2022/09/02 06:28:17;;;;;;;4.10;0.93;;;15.70;92.50;;;;;;5109541;27;20435;-71
2022/09/02 06:30:44;;;;;;;2.13;0.70;;;15.70;92.40;;;;;;5124903;27;20398;-71
2022/09/02 06:33:10;;;;;;;2.20;1.03;;;15.70;92.50;;;;;;5128951;27;20418;-71
2022/09/02 06:35:42;;;;;;;3.30;1.05;;;15.80;92.50;;;;;;5114872;27;20400;-71
2022/09/02 06:38:09;;;;;;;3.42;0.85;;;15.80;92.50;;;;;;5127933;27;20482;-71
2022/09/02 06:40:36;;;;;;;3.33;1.10;;;15.90;92.60;;;;;;5126501;27;20411;-71
2022/09/02 06:43:01;;;;;;;3.38;0.75;;;15.90;92.50;;;;;;5118600;27;20391;-70
2022/09/02 06:45:27;;;;;;;3.37;0.80;;;15.90;92.60;;;;;;5126062;27;20435;-71
2022/09/02 06:47:53;;;;;;;1.90;0.60;;;16.00;92.70;;;;;;5118616;27;20432;-71
2022/09/02 06:50:19;;;;;;;2.03;0.90;;;16.00;92.70;;;;;;5128642;27;20408;-71
2022/09/02 06:52:45;;;;;;;3.30;0.83;;;16.00;92.70;;;;;;5129111;27;20398;-71
2022/09/02 06:55:11;;;;;;;3.47;0.88;;;16.00;92.90;;;;;;5113197;27;20395;-71
2022/09/02 06:57:37;;;;;;;2.90;1.00;;;16.10;92.70;;;;;;5091611;28;20412;-71
2022/09/02 07:00:06;;;;;;;2.20;1.00;;;16.10;92.70;;;;;;5122139;27;20392;-71
2022/09/02 07:02:32;;;;;;;1.90;0.90;;;16.10;92.80;;;;;;5097055;28;20405;-71
2022/09/02 07:05:10;;;;;;;1.87;0.80;;;16.10;92.60;;;;;;5122140;27;20400;-71
2022/09/02 07:07:37;;;;;;;2.33;0.70;;;16.10;92.70;;;;;;5121128;27;20850;-71
2022/09/02 07:10:06;;;;;;;4.18;0.77;;;16.20;92.70;;;;;;5115534;27;20757;-72
2022/09/02 07:12:33;;;;;;;3.53;0.80;;;16.20;92.80;;;;;;5129006;27;20391;-70
2022/09/02 07:14:59;;;;;;;3.65;0.70;;;16.30;92.70;;;;;;5109863;27;20468;-71
2022/09/02 07:17:25;;;;;;;1.88;0.60;;;16.40;92.70;;;;;;5128818;27;20394;-71
2022/09/02 07:19:51;;;;;;;1.67;0.60;;;16.40;92.50;;;;;;5127971;27;20451;-71
2022/09/02 07:22:17;;;;;;;2.83;0.80;;;16.40;92.50;;;;;;5128750;27;20399;-70
2022/09/02 07:24:43;;;;;;;2.50;0.80;;;16.50;92.50;;;;;;5114884;27;20468;-71
2022/09/02 07:27:10;;;;;;;4.10;0.90;;;16.50;92.40;;;;;;5115932;27;20400;-71
2022/09/02 07:29:35;;;;;;;3.88;0.80;;;16.50;92.10;;;;;;5122105;27;21012;-71
2022/09/02 07:32:02;;;;;;;2.13;1.10;;;16.60;92.20;;;;;;5108404;28;20480;-70
2022/09/02 07:34:28;;;;;;;2.67;0.90;;;16.60;92.10;;;;;;5121628;28;20507;-71
2022/09/02 07:36:53;;;;;;;2.63;0.60;;;16.70;92.20;;;;;;5121842;27;20410;-73
2022/09/02 07:39:19;;;;;;;2.00;0.80;;;16.70;92.40;;;;;;5108303;28;20430;-71
2022/09/02 07:41:48;;;;;;;4.22;0.73;;;16.80;92.30;;;;;;5099319;28;20426;-71
2022/09/02 07:44:14;;;;;;;3.47;0.80;;;16.90;92.10;;;;;;5114563;28;20390;-71
2022/09/02 07:46:40;;;;;;;1.60;0.60;;;16.90;91.90;;;;;;5115151;28;20395;-71
2022/09/02 07:49:08;;;;;;;2.80;0.70;;;16.90;92.00;;;;;;5122218;28;20491;-72
2022/09/02 07:51:35;;;;;;;1.40;0.60;;;17.10;92.20;;;;;;5121472;28;20919;-72
2022/09/02 07:54:02;;;;;;;3.00;0.88;;;17.10;91.60;;;;;;5115153;28;20461;-72
2022/09/02 07:56:28;;;;;;;1.92;0.75;;;17.10;91.60;;;;;;5128195;28;20397;-71
2022/09/02 07:58:53;;;;;;;3.57;1.00;;;17.20;91.50;;;;;;5115114;28;20391;-72
2022/09/02 08:01:21;;;;;;;2.55;0.82;;;17.30;91.50;;;;;;5128115;27;20760;-71
2022/09/02 08:03:47;;;;;;;2.15;0.70;;;17.30;91.60;;;;;;5108060;28;20435;-71
2022/09/02 08:06:13;;;;;;;2.23;0.83;;;17.40;91.70;;;;;;5131008;28;20422;-71
2022/09/02 08:08:40;;;;;;;1.48;0.80;;;17.50;91.30;;;;;;5148411;28;20398;-71
2022/09/02 08:11:06;;;;;;;2.40;0.88;;;17.60;91.30;;;;;;5116548;28;20404;-71
2022/09/02 08:13:34;;;;;;;2.90;0.60;;;17.70;91.00;;;;;;5140522;27;20446;-72
2022/09/02 08:16:01;;;;;;;3.85;0.90;;;17.70;91.00;;;;;;5137530;28;20405;-71
2022/09/02 08:18:27;;;;;;;2.63;0.68;;;17.80;91.10;;;;;;5103154;28;20443;-71
2022/09/02 08:20:54;;;;;;;2.45;0.73;;;17.90;91.10;;;;;;5111134;27;20388;-70
2022/09/02 08:23:19;;;;;;;2.78;0.82;;;18.00;91.00;;;;;;5133059;27;20386;-71
2022/09/02 08:25:45;;;;;;;2.47;0.70;;;18.10;90.80;;;;;;5132832;27;20820;-72
2022/09/02 08:28:11;;;;;;;1.40;0.63;;;18.20;90.70;;;;;;5123629;27;20769;-71
2022/09/02 08:30:36;;;;;;;3.87;1.10;;;18.30;90.80;;;;;;5111192;27;20403;-71
2022/09/02 08:33:02;;;;;;;4.55;0.88;;;18.40;90.80;;;;;;5120237;27;20390;-71
2022/09/02 08:35:28;;;;;;;4.93;1.03;;;18.50;90.60;;;;;;5132225;27;20549;-71
2022/09/02 08:37:54;;;;;;;2.95;0.80;;;18.60;90.40;;;;;;5130957;27;20399;-71
2022/09/02 08:40:23;;;;;;;2.20;0.63;;;18.70;90.50;;;;;;5131997;27;20956;-72
2022/09/02 08:42:54;;;;;;;2.10;0.80;;;18.70;90.40;;;;;;5124710;27;20403;-72
2022/09/02 08:45:36;;;;;;;2.30;0.80;;;18.80;90.20;;;;;;5134972;27;20386;-72
2022/09/02 08:48:26;;;;;;;2.03;0.82;;;19.00;90.10;;;;;;5140833;27;20782;-71
2022/09/02 08:50:59;;;;;;;3.13;0.80;;;19.00;90.30;;;;;;5138448;27;20391;-71
2022/09/02 08:53:33;;;;;;;3.38;1.05;;;19.10;89.80;;;;;;5150584;27;20436;-72
2022/09/02 08:56:01;;;;;;;2.92;0.80;;;19.20;89.30;;;;;;5151039;27;21030;-72
2022/09/02 08:58:32;;;;;;;4.00;1.10;;;19.20;89.50;;;;;;5135373;27;20415;-71
2022/09/02 09:01:11;;;;;;;2.92;1.00;;;19.40;89.50;;;;;;5121679;27;20395;-71
2022/09/02 09:03:55;;;;;;;1.92;0.82;;;19.50;89.30;;;;;;5132074;27;20407;-71
2022/09/02 09:06:51;;;;;;;2.95;0.80;;;19.60;88.70;;;;;;5129556;27;20509;-71
2022/09/02 09:09:28;;;;;;;4.57;1.17;;;19.70;88.60;;;;;;5123187;27;20402;-72
2022/09/02 09:12:25;;;;;;;2.67;1.00;;;19.80;86.60;;;;;;5119747;27;20487;-71
2022/09/02 09:15:12;;;;;;;3.83;1.25;;;19.90;86.70;;;;;;5107509;28;20424;-71
2022/09/02 09:17:49;;;;;;;3.27;1.20;;;19.90;86.70;;;;;;5115265;27;20411;-71
2022/09/02 09:20:20;;;;;;;2.42;1.00;;;20.10;85.80;;;;;;5112839;27;20492;-71
2022/09/02 09:22:49;;;;;;;2.92;0.93;;;20.60;86.90;;;;;;5124531;27;20408;-70
2022/09/02 09:25:16;;;;;;;2.07;1.10;;;21.40;85.40;;;;;;5129220;27;20821;-70
2022/09/02 09:27:45;;;;;;;2.50;0.98;;;22.20;81.80;;;;;;5117348;27;20432;-69
2022/09/02 09:30:12;;;;;;;2.28;0.90;;;22.80;80.60;;;;;;5128696;27;20737;-69
2022/09/02 09:32:45;;;;;;;3.50;0.93;;;23.50;80.90;;;;;;5116063;27;20419;-70
2022/09/02 09:35:13;;;;;;;3.43;0.90;;;24.20;75.60;;;;;;5128282;27;20423;-70
2022/09/02 09:37:41;;;;;;;1.98;0.93;;;24.60;76.40;;;;;;5126443;27;20406;-69
2022/09/02 09:40:20;;;;;;;1.47;0.77;;;25.00;74.50;;;;;;5103891;28;20969;-70
2022/09/02 09:42:47;;;;;;;2.55;0.90;;;25.30;73.40;;;;;;5110246;28;20409;-70
2022/09/02 09:45:24;;;;;;;3.15;1.00;;;25.50;70.60;;;;;;5100501;28;20976;-70
2022/09/02 09:48:21;;;;;;;3.60;1.15;;;25.60;71.20;;;;;;5129078;27;20905;-70
2022/09/02 09:50:56;;;;;;;2.58;1.00;;;25.80;70.90;;;;;;5120034;27;20765;-71
2022/09/02 09:53:27;;;;;;;3.17;1.10;;;25.90;68.70;;;;;;5129903;27;20422;-72
2022/09/02 09:56:05;;;;;;;2.75;0.90;;;26.00;68.80;;;;;;5128127;27;20438;-71
2022/09/02 09:58:44;;;;;;;3.92;1.10;;;26.30;68.90;;;;;;5109391;28;20464;-70
2022/09/02 10:01:23;;;;;;;2.65;0.73;;;26.70;68.90;;;;;;5109516;28;20508;-71
2022/09/02 10:03:52;;;;;;;2.83;0.90;;;27.00;67.50;;;;;;5123069;27;20493;-70
2022/09/02 10:06:33;;;;;;;2.60;1.00;;;27.30;66.90;;;;;;5116803;27;20407;-71
2022/09/02 10:09:00;;;;;;;4.00;1.02;;;27.50;65.00;;;;;;5113787;27;20413;-70
2022/09/02 10:11:34;;;;;;;3.80;1.25;;;27.50;64.80;;;;;;5125467;27;20508;-70
2022/09/02 10:14:01;;;;;;;2.97;1.00;;;27.40;61.20;;;;;;5119185;27;20925;-70
2022/09/02 10:16:55;;;;;;;3.28;0.98;;;27.50;63.50;;;;;;5122905;27;20897;-70
2022/09/02 10:19:48;;;;;;;3.17;0.80;;;27.50;62.10;;;;;;5101643;28;20415;-71
2022/09/02 10:22:38;;;;;;;2.60;1.00;;;27.40;61.80;;;;;;5091231;28;20417;-70
2022/09/02 10:25:42;;;;;;;3.38;1.00;;;27.70;63.20;;;;;;5109204;28;20424;-71
2022/09/02 10:28:32;;;;;;;3.00;0.90;;;28.00;61.50;;;;;;5090300;28;20835;-70
2022/09/02 10:31:08;;;;;;;3.23;0.77;;;27.90;60.60;;;;;;5112608;27;20496;-70
2022/09/02 10:34:06;;;;;;;2.70;1.10;;;28.00;58.60;;;;;;5117841;27;20423;-71
2022/09/02 10:37:11;;;;;;;2.92;0.90;;;28.10;59.10;;;;;;5109515;27;20450;-72
2022/09/02 10:39:55;;;;;;;9.50;1.17;;;28.40;57.70;;;;;;5109234;27;20401;-71
2022/09/02 10:43:09;;;;;;;1.92;0.60;;;28.50;58.60;;;;;;5125145;27;20407;-71
2022/09/02 10:45:35;;;;;;;3.50;0.70;;;28.80;60.10;;;;;;5035315;28;20408;-70
2022/09/02 10:48:39;;;;;;;2.53;0.88;;;29.10;57.80;;;;;;5118354;27;20485;-71
2022/09/02 10:51:52;;;;;;;1.90;1.00;;;29.20;57.60;;;;;;5104882;28;20487;-71
2022/09/02 10:54:45;;;;;;;2.80;0.70;;;29.10;56.40;;;;;;5109079;27;20432;-70
2022/09/02 10:57:16;;;;;;;2.17;0.70;;;29.30;57.30;;;;;;5113094;27;20418;-70
2022/09/02 10:59:50;;;;;;;4.13;0.70;;;29.50;56.30;;;;;;5098812;28;20779;-70
2022/09/02 11:02:23;;;;;;;2.33;0.55;;;29.50;54.50;;;;;;5122024;27;21066;-70
2022/09/02 11:05:23;;;;;;;2.22;0.75;;;29.30;55.20;;;;;;5122840;27;20407;-71
2022/09/02 11:07:59;;;;;;;5.00;0.70;;;29.30;53.80;;;;;;5058065;27;20455;-71
2022/09/02 11:10:30;;;;;;;1.35;0.52;;;29.20;54.70;;;;;;5109984;28;20089;-71
2022/09/02 11:12:55;;;;;;;;;;;29.20;55.30;;;;;;5123587;27;20050;-70
2022/09/02 11:15:26;;;;;;;;;;;29.40;54.90;;;;;;5110142;28;19920;-71
2022/09/02 11:18:09;;;;;;;;;;;29.40;54.10;;;;;;5124535;27;19926;-70
2022/09/02 11:20:48;;;;;;;;;;;29.70;55.60;;;;;;5119108;27;19982;-70
2022/09/02 11:23:14;;;;;;;;;;;30.00;55.60;;;;;;5129401;27;19931;-70
2022/09/02 11:25:49;;;;;;;;;;;30.30;54.10;;;;;;5130581;27;19919;-71
2022/09/02 11:28:17;;;;;;;;;;;30.30;53.60;;;;;;5117970;27;19919;-71
2022/09/02 11:30:47;;;;;;;;;;;30.30;53.60;;;;;;5117099;28;20475;-70
2022/09/02 11:33:22;;;;;;;;;;;30.20;52.10;;;;;;5121145;28;19930;-70
2022/09/02 11:35:49;;;;;;;;;;;30.20;54.10;;;;;;5125661;28;19920;-71
2022/09/02 11:38:41;;;;;;;;;;;30.20;52.40;;;;;;5130410;28;19978;-72
2022/09/02 11:41:13;;;;;;;;;;;30.10;52.10;;;;;;5083521;27;19924;-70
2022/09/02 11:43:41;;;;;;;;;;;30.20;52.90;;;;;;5123184;28;20376;-71
2022/09/02 11:46:26;;;;;;;;;;;30.20;51.80;;;;;;5076939;28;19960;-70
2022/09/02 11:49:10;;;;;;;;;;;30.20;51.80;;;;;;5088157;28;19928;-70
2022/09/02 11:51:54;;;;;;;;;;;30.20;52.80;;;;;;5089215;28;19920;-71
2022/09/02 11:54:21;;;;;;;;;;;30.20;52.30;;;;;;5077363;28;20010;-70
2022/09/02 11:56:49;;;;;;;;;;;30.20;50.60;;;;;;5091135;28;19920;-71
2022/09/02 11:59:19;;;;;;;;;;;30.30;52.00;;;;;;5093405;28;20377;-71
2022/09/02 12:01:53;;;;;;;;;;;30.40;51.70;;;;;;5091107;28;19928;-71
2022/09/02 12:04:25;;;;;;;1.58;0.45;;;30.50;50.10;;;;;;5083252;28;19927;-70
2022/09/02 12:07:06;;;;;;;2.90;0.60;;;30.50;50.50;;;;;;5079931;28;20108;-71
2022/09/02 12:09:53;;;;;;;;;;;30.60;50.10;;;;;;5092257;28;20180;-70
2022/09/02 12:12:37;;;;;;;;;;;30.60;51.40;;;;;;5081676;28;19942;-71
2022/09/02 12:15:03;;;;;;;;;;;30.70;51.10;;;;;;5093037;28;19920;-71
2022/09/02 12:17:36;;;;;;;;;;;30.70;50.40;;;;;;5093428;28;19924;-70
2022/09/02 12:20:09;;;;;;;;;;;30.70;50.20;;;;;;5092738;28;19920;-70
2022/09/02 12:22:39;;;;;;;1.55;0.40;;;30.80;50.90;;;;;;5092440;28;19927;-71
2022/09/02 12:25:24;;;;;;;3.00;0.30;;;30.80;49.60;;;;;;5072142;28;20063;-70
2022/09/02 12:28:25;;;;;;;1.58;0.40;;;30.70;49.40;;;;;;5087469;28;20639;-70
2022/09/02 12:30:54;;;;;;;3.28;0.40;;;30.50;49.30;;;;;;5090901;28;20413;-71
2022/09/02 12:33:29;;;;;;;3.63;0.70;;;30.50;50.20;;;;;;5091256;28;20429;-70
2022/09/02 12:35:57;;;;;;;1.40;0.40;;;30.60;50.90;;;;;;5090989;28;20883;-70
2022/09/02 12:38:28;;;;;;;1.17;0.40;;;30.80;50.60;;;;;;5090848;28;21154;-71
2022/09/02 12:41:22;;;;;;;5.80;0.52;;;30.80;49.70;;;;;;5077868;28;20406;-70
2022/09/02 12:44:14;;;;;;;4.07;0.38;;;30.80;49.20;;;;;;5089718;28;20417;-71
2022/09/02 12:46:46;;;;;;;2.00;0.30;;;30.80;48.00;;;;;;5082415;28;20414;-70
2022/09/02 12:49:21;;;;;;;0.65;0.30;;;30.70;50.10;;;;;;5091499;28;20048;-72
2022/09/02 12:51:56;;;;;;;2.50;0.28;;;30.70;49.10;;;;;;5091853;28;20040;-70
2022/09/02 12:54:23;;;;;;;;;;;30.70;49.10;;;;;;5080538;28;20036;-70
2022/09/02 12:56:51;;;;;;;2.40;0.30;;;30.80;48.50;;;;;;5091531;28;19924;-70
2022/09/02 12:59:30;;;;;;;;;;;31.00;49.10;;;;;;5092049;28;20383;-72
2022/09/02 13:02:05;;;;;;;;;;;31.40;48.80;;;;;;5092080;28;19981;-71
2022/09/02 13:04:50;;;;;;;1.27;0.22;;;31.70;48.50;;;;;;5091869;28;19920;-70
2022/09/02 13:07:37;;;;;;;3.00;0.40;;;32.10;47.50;;;;;;5091614;28;20126;-71
2022/09/02 13:10:43;;;;;;;1.80;0.50;;;32.20;47.10;;;;;;5091683;28;20040;-70